Columbus, Ohio
Traffic Map
Current Weather Conditions
Columbus, Ohio
Broken Clouds
Broken Clouds
19°
Feels Like: 9°
Wind Chill: Ceiling: 4000
Heat Index: 19° Visibility: 10mi
Dew Point: 12° Wind: 8mph
Humidity: 74% Direction: 350° (N)
Pressure: 30.13in Gusts: 0mph
Raw Report DataKCMH 280909Z 35007KT 10SM SCT025 BKN040 M07/M11 A3013 RMK AO2
Traffic Incident Summary
Active as of:
Severity:
Category:
InformationThere was an issue retrieving the traffic information for this location. Please try a different location or try again shortly.
Advertisements
Track Severe Weather on mobile